createdAt,value
2018-02-14T00:03:13.348Z,74.10
2018-02-14T00:05:40.951Z,74.10
2018-02-14T00:08:08.496Z,73.90
2018-02-14T00:10:36.113Z,74.20
2018-02-14T00:13:03.690Z,74.30
2018-02-14T00:15:31.236Z,74.40
2018-02-14T00:17:58.836Z,74.10
2018-02-14T00:20:26.382Z,74.00
2018-02-14T00:22:53.954Z,74.40
2018-02-14T00:25:21.503Z,74.10
2018-02-14T00:27:49.073Z,74.40
2018-02-14T00:30:16.608Z,74.50
2018-02-14T00:32:44.206Z,74.40
2018-02-14T00:35:11.750Z,74.40
2018-02-14T00:37:39.300Z,74.40
2018-02-14T00:40:07.052Z,74.40
2018-02-14T00:42:34.602Z,74.20
2018-02-14T00:45:02.186Z,74.50
2018-02-14T00:47:29.872Z,74.30
2018-02-14T00:49:58.216Z,74.50
2018-02-14T00:52:25.834Z,74.50
2018-02-14T00:54:53.423Z,74.50
2018-02-14T00:57:20.981Z,74.20
2018-02-14T00:59:48.563Z,74.70
2018-02-14T01:02:16.114Z,74.70
2018-02-14T01:04:43.676Z,74.70
2018-02-14T01:07:11.309Z,74.40
2018-02-14T01:09:38.851Z,74.60
2018-02-14T01:12:06.634Z,74.40
2018-02-14T01:14:34.179Z,74.30
2018-02-14T01:17:01.716Z,74.50
2018-02-14T01:19:29.317Z,74.40
2018-02-14T01:21:56.869Z,74.40
2018-02-14T01:24:24.833Z,74.60
2018-02-14T01:26:52.390Z,74.50
2018-02-14T01:29:19.973Z,74.70
2018-02-14T01:31:47.516Z,74.90
2018-02-14T01:34:15.090Z,74.70
2018-02-14T01:36:42.630Z,74.50
2018-02-14T01:39:10.182Z,74.90
2018-02-14T01:41:37.756Z,75.00
2018-02-14T01:44:05.316Z,75.00
2018-02-14T01:46:32.909Z,75.00
2018-02-14T01:49:00.456Z,74.70
2018-02-14T01:51:28.047Z,75.00
2018-02-14T01:53:55.859Z,75.00
2018-02-14T01:56:23.441Z,75.30
2018-02-14T01:58:50.993Z,74.90
2018-02-14T02:01:18.585Z,74.70
2018-02-14T02:03:46.243Z,74.90
2018-02-14T02:06:13.795Z,74.40
2018-02-14T02:08:41.675Z,74.60
2018-02-14T02:11:09.224Z,75.20
2018-02-14T02:13:36.951Z,75.00
2018-02-14T02:16:04.489Z,75.40
2018-02-14T02:18:32.177Z,75.50
2018-02-14T02:20:59.750Z,75.70
2018-02-14T02:23:27.337Z,75.70
2018-02-14T02:25:54.888Z,75.70
2018-02-14T02:28:22.453Z,75.70
2018-02-14T02:30:50.044Z,75.60
2018-02-14T02:33:18.347Z,75.60
2018-02-14T02:35:45.938Z,75.60
2018-02-14T02:38:13.500Z,75.60
2018-02-14T02:40:42.113Z,75.50
2018-02-14T02:43:10.422Z,75.50
2018-02-14T02:45:38.001Z,75.50
2018-02-14T02:48:05.554Z,75.50
2018-02-14T02:50:33.113Z,75.50
2018-02-14T02:53:00.683Z,75.50
2018-02-14T02:55:28.235Z,75.50
2018-02-14T02:57:55.827Z,75.50
2018-02-14T03:00:23.387Z,75.50
2018-02-14T03:02:50.973Z,75.50
2018-02-14T03:05:18.657Z,75.50
2018-02-14T03:07:46.243Z,75.50
2018-02-14T03:10:13.793Z,75.50
2018-02-14T03:12:41.397Z,75.50
2018-02-14T03:15:08.940Z,75.50
2018-02-14T03:17:37.380Z,75.40
2018-02-14T03:20:04.912Z,75.40
2018-02-14T03:22:33.232Z,75.50
2018-02-14T03:25:00.810Z,75.40
2018-02-14T03:27:29.128Z,75.80
2018-02-14T03:29:56.707Z,75.30
2018-02-14T03:32:24.340Z,75.30
2018-02-14T03:34:52.675Z,75.40
2018-02-14T03:37:20.228Z,75.30
2018-02-14T03:39:47.813Z,75.40
2018-02-14T03:42:16.864Z,75.30
2018-02-14T03:44:44.648Z,75.30
2018-02-14T03:47:12.228Z,75.30
2018-02-14T03:49:39.828Z,75.30
2018-02-14T03:52:07.525Z,75.30
2018-02-14T03:54:35.104Z,75.30
2018-02-14T03:57:02.708Z,75.30
2018-02-14T03:59:30.364Z,75.30
2018-02-14T04:01:57.950Z,75.30
2018-02-14T04:04:25.509Z,75.30
2018-02-14T04:06:53.045Z,75.30
2018-02-14T04:09:20.661Z,75.30
2018-02-14T04:11:48.397Z,75.30
2018-02-14T04:14:15.985Z,75.20
2018-02-14T04:16:43.531Z,75.30
2018-02-14T04:19:11.117Z,75.20
2018-02-14T04:21:38.661Z,75.20
2018-02-14T04:24:06.283Z,75.80
2018-02-14T04:26:33.882Z,75.20
2018-02-14T04:29:01.443Z,75.20
2018-02-14T04:31:29.804Z,75.30
2018-02-14T04:33:57.358Z,75.30
2018-02-14T04:36:24.924Z,75.30
2018-02-14T04:38:52.488Z,75.30
2018-02-14T04:41:20.105Z,75.30
2018-02-14T04:43:48.433Z,75.30
2018-02-14T04:46:16.025Z,75.20
2018-02-14T04:48:44.337Z,75.00
2018-02-14T04:51:11.903Z,74.90
2018-02-14T04:53:39.468Z,74.70
2018-02-14T04:56:07.225Z,75.20
2018-02-14T04:58:34.811Z,75.10
2018-02-14T05:01:02.353Z,75.10
2018-02-14T05:03:29.950Z,75.10
2018-02-14T05:05:57.500Z,75.10
2018-02-14T05:08:25.807Z,75.10
2018-02-14T05:10:54.119Z,75.10
2018-02-14T05:13:21.676Z,75.00
2018-02-14T05:15:49.303Z,75.10
2018-02-14T05:18:16.837Z,75.10
2018-02-14T05:20:45.199Z,75.10
2018-02-14T05:23:12.754Z,75.00
2018-02-14T05:25:40.468Z,75.10
2018-02-14T05:28:08.039Z,75.10
2018-02-14T05:30:35.622Z,75.00
2018-02-14T05:33:03.584Z,75.00
2018-02-14T05:35:31.313Z,75.00
2018-02-14T05:37:59.743Z,75.00
2018-02-14T05:40:27.295Z,74.90
2018-02-14T05:42:54.876Z,75.00
2018-02-14T05:45:22.515Z,74.90
2018-02-14T05:47:50.117Z,75.00
2018-02-14T05:50:17.673Z,74.90
2018-02-14T05:52:45.400Z,74.90
2018-02-14T05:55:12.954Z,74.90
2018-02-14T05:57:40.542Z,74.90
2018-02-14T06:00:08.093Z,74.90
2018-02-14T06:02:35.637Z,74.90
2018-02-14T06:05:03.215Z,74.90
2018-02-14T06:07:30.757Z,74.90
2018-02-14T06:09:58.332Z,74.80
2018-02-14T06:12:25.894Z,74.80
2018-02-14T06:14:53.476Z,74.80
2018-02-14T06:17:21.125Z,74.80
2018-02-14T06:19:48.717Z,74.80
2018-02-14T06:22:16.307Z,74.80
2018-02-14T06:24:43.867Z,74.80
2018-02-14T06:27:11.440Z,74.80
2018-02-14T06:29:38.979Z,74.80
2018-02-14T06:32:06.582Z,74.70
2018-02-14T06:34:34.132Z,74.70
2018-02-14T06:37:01.713Z,74.80
2018-02-14T06:39:29.273Z,74.80
2018-02-14T06:41:56.866Z,74.70
2018-02-14T06:44:24.416Z,74.80
2018-02-14T06:46:52.780Z,74.80
2018-02-14T06:49:20.344Z,74.70
2018-02-14T06:51:48.817Z,74.90
2018-02-14T06:54:17.174Z,74.80
2018-02-14T06:56:44.723Z,74.80
2018-02-14T06:59:12.303Z,74.90
2018-02-14T07:01:39.852Z,75.00
2018-02-14T07:04:07.434Z,75.00
2018-02-14T07:06:35.109Z,75.10
2018-02-14T07:09:02.699Z,75.00
2018-02-14T07:11:30.244Z,75.10
2018-02-14T07:13:57.889Z,75.10
2018-02-14T07:16:26.191Z,75.20
2018-02-14T07:18:53.741Z,75.10
2018-02-14T07:21:21.333Z,75.20
2018-02-14T07:23:48.887Z,75.30
2018-02-14T07:26:16.500Z,75.30
2018-02-14T07:28:44.809Z,75.40
2018-02-14T07:31:12.419Z,75.30
2018-02-14T07:33:39.962Z,75.20
2018-02-14T07:36:07.513Z,75.00
2018-02-14T07:38:35.091Z,74.90
2018-02-14T07:41:03.202Z,74.80
2018-02-14T07:43:30.952Z,74.70
2018-02-14T07:45:59.270Z,74.50
2018-02-14T07:48:26.841Z,74.50
2018-02-14T07:50:54.390Z,74.40
2018-02-14T07:53:21.968Z,74.40
2018-02-14T07:55:49.525Z,74.40
2018-02-14T07:58:17.260Z,74.30
2018-02-14T08:00:44.848Z,74.30
2018-02-14T08:03:12.586Z,74.20
2018-02-14T08:05:40.166Z,74.20
2018-02-14T08:08:08.529Z,74.20
2018-02-14T08:10:36.108Z,73.90
2018-02-14T08:13:03.652Z,74.00
2018-02-14T08:15:31.229Z,74.10
2018-02-14T08:17:58.767Z,73.90
2018-02-14T08:20:26.358Z,73.80
2018-02-14T08:22:53.900Z,73.70
2018-02-14T08:25:21.434Z,73.60
2018-02-14T08:27:49.021Z,73.50
2018-02-14T08:30:16.581Z,73.40
2018-02-14T08:32:44.168Z,73.20
2018-02-14T08:35:11.714Z,73.20
2018-02-14T08:37:39.439Z,73.10
2018-02-14T08:40:06.996Z,72.90
2018-02-14T08:42:34.561Z,72.60
2018-02-14T08:45:02.993Z,72.70
2018-02-14T08:47:30.530Z,72.60
2018-02-14T08:49:58.231Z,72.70
2018-02-14T08:52:26.543Z,72.70
2018-02-14T08:54:54.196Z,72.60
2018-02-14T08:57:21.736Z,72.50
2018-02-14T08:59:49.417Z,72.40
2018-02-14T09:02:16.965Z,72.20
2018-02-14T09:04:44.558Z,72.00
2018-02-14T09:07:12.099Z,71.80
2018-02-14T09:09:39.659Z,71.50
2018-02-14T09:12:07.239Z,71.40
2018-02-14T09:14:34.783Z,71.60
2018-02-14T09:17:02.388Z,71.40
2018-02-14T09:19:29.936Z,71.40
2018-02-14T09:21:57.517Z,71.30
2018-02-14T09:24:25.127Z,71.30
2018-02-14T09:26:52.752Z,71.10
2018-02-14T09:29:21.058Z,70.80
2018-02-14T09:31:48.661Z,70.80
2018-02-14T09:34:17.027Z,70.60
2018-02-14T09:36:46.081Z,70.20
2018-02-14T09:39:13.652Z,70.20
2018-02-14T09:41:41.200Z,69.80
2018-02-14T09:44:08.817Z,69.90
2018-02-14T09:46:36.460Z,70.00
2018-02-14T09:49:03.988Z,69.80
2018-02-14T09:51:31.559Z,70.10
2018-02-14T09:53:59.256Z,69.90
2018-02-14T09:56:26.833Z,69.60
2018-02-14T09:58:54.376Z,69.90
2018-02-14T10:01:22.728Z,69.60
2018-02-14T10:03:50.264Z,69.00
2018-02-14T10:06:18.173Z,68.90
2018-02-14T10:08:45.720Z,68.70
2018-02-14T10:11:13.266Z,68.40
2018-02-14T10:13:40.977Z,68.20
2018-02-14T10:16:09.281Z,67.90
2018-02-14T10:18:36.857Z,67.80
2018-02-14T10:21:04.413Z,67.80
2018-02-14T10:23:33.190Z,67.70
2018-02-14T10:26:00.800Z,67.60
2018-02-14T10:28:28.374Z,67.50
2018-02-14T10:30:56.684Z,67.30
2018-02-14T10:33:24.275Z,67.30
2018-02-14T10:35:51.876Z,67.20
2018-02-14T10:38:19.425Z,67.10
2018-02-14T10:40:47.786Z,66.90
2018-02-14T10:43:15.376Z,66.80
2018-02-14T10:45:43.756Z,66.60
2018-02-14T10:48:11.297Z,66.60
2018-02-14T10:50:39.649Z,67.40
2018-02-14T10:53:07.382Z,67.00
2018-02-14T10:55:34.978Z,67.00
2018-02-14T10:58:02.532Z,67.10
2018-02-14T11:00:35.769Z,66.60
2018-02-14T11:03:09.820Z,67.00
2018-02-14T11:05:37.409Z,67.10
2018-02-14T11:08:04.957Z,67.10
2018-02-14T11:10:32.500Z,66.70
2018-02-14T11:13:00.084Z,66.70
2018-02-14T11:15:27.633Z,67.10
2018-02-14T11:17:55.262Z,67.10
2018-02-14T11:20:22.806Z,67.10
2018-02-14T11:22:52.455Z,67.30
2018-02-14T11:25:20.065Z,67.30
2018-02-14T11:27:47.599Z,67.30
2018-02-14T11:30:16.112Z,67.60
2018-02-14T11:32:44.429Z,67.80
2018-02-14T11:35:12.006Z,67.70
2018-02-14T11:37:39.539Z,67.60
2018-02-14T11:40:07.293Z,67.90
2018-02-14T11:42:34.828Z,68.00
2018-02-14T11:45:02.408Z,68.10
2018-02-14T11:47:29.959Z,68.40
2018-02-14T11:49:57.549Z,68.60
2018-02-14T11:52:25.085Z,68.70
2018-02-14T11:54:52.636Z,68.80
2018-02-14T11:57:20.228Z,68.90
2018-02-14T11:59:47.782Z,68.90
2018-02-14T12:02:15.443Z,69.10
2018-02-14T12:04:43.004Z,69.10
2018-02-14T12:07:10.586Z,69.40
2018-02-14T12:09:38.194Z,69.50
2018-02-14T12:12:06.663Z,69.50
2018-02-14T12:14:34.216Z,69.50
2018-02-14T12:17:02.559Z,69.50
2018-02-14T12:19:30.104Z,69.40
2018-02-14T12:21:57.657Z,69.50
2018-02-14T12:24:26.148Z,69.40
2018-02-14T12:26:53.699Z,69.10
2018-02-14T12:29:21.285Z,69.10
2018-02-14T12:31:48.840Z,68.90
2018-02-14T12:34:16.414Z,68.50
2018-02-14T12:36:43.969Z,68.40
2018-02-14T12:39:13.546Z,68.40
2018-02-14T12:41:41.261Z,68.40
2018-02-14T12:44:09.566Z,68.50
2018-02-14T12:46:37.140Z,68.50
2018-02-14T12:49:04.702Z,68.50
2018-02-14T12:51:32.293Z,68.50
2018-02-14T12:53:59.830Z,68.60
2018-02-14T12:56:27.438Z,68.70
2018-02-14T12:58:55.748Z,68.40
2018-02-14T13:01:23.328Z,68.40
2018-02-14T13:03:50.869Z,68.30
2018-02-14T13:06:18.441Z,68.30
2018-02-14T13:08:45.974Z,68.20
2018-02-14T13:11:13.504Z,68.00
2018-02-14T13:13:41.067Z,68.00
2018-02-14T13:16:09.390Z,68.30
2018-02-14T13:18:37.222Z,68.30
2018-02-14T13:21:04.787Z,68.30
2018-02-14T13:23:32.369Z,68.20
2018-02-14T13:25:59.922Z,67.90
2018-02-14T13:28:27.537Z,67.80
2018-02-14T13:30:55.085Z,67.80
2018-02-14T13:33:22.632Z,67.80
2018-02-14T13:35:50.416Z,67.70
2018-02-14T13:38:18.728Z,67.60
2018-02-14T13:40:46.307Z,67.60
2018-02-14T13:43:13.874Z,67.30
2018-02-14T13:45:41.465Z,67.30
2018-02-14T13:48:09.009Z,66.90
2018-02-14T13:50:36.549Z,66.20
2018-02-14T13:53:04.129Z,65.90
2018-02-14T13:55:31.684Z,65.90
2018-02-14T13:57:59.385Z,65.90
2018-02-14T14:00:27.868Z,65.00
2018-02-14T14:02:56.221Z,65.00
2018-02-14T14:05:24.528Z,65.00
2018-02-14T14:07:52.114Z,65.00
2018-02-14T14:10:19.665Z,64.50
2018-02-14T14:12:47.200Z,64.70
2018-02-14T14:15:15.529Z,64.80
2018-02-14T14:17:43.063Z,64.70
2018-02-14T14:20:10.637Z,64.80
2018-02-14T14:22:38.388Z,64.70
2018-02-14T14:25:05.945Z,64.70
2018-02-14T14:27:33.717Z,64.60
2018-02-14T14:30:01.294Z,64.40
2018-02-14T14:32:28.845Z,64.20
2018-02-14T14:34:56.404Z,63.80
2018-02-14T14:37:23.985Z,63.50
2018-02-14T14:39:51.526Z,63.20
2018-02-14T14:42:19.088Z,63.40
2018-02-14T14:44:46.621Z,63.40
2018-02-14T14:47:14.449Z,63.40
2018-02-14T14:49:41.995Z,63.40
2018-02-14T14:52:09.543Z,63.40
2018-02-14T14:54:37.176Z,63.70
2018-02-14T14:57:04.717Z,63.60
2018-02-14T14:59:32.322Z,63.80
2018-02-14T15:01:59.853Z,63.60
2018-02-14T15:04:27.433Z,63.80
2018-02-14T15:06:55.861Z,63.60
2018-02-14T15:09:23.448Z,63.80
2018-02-14T15:11:50.990Z,64.10
2018-02-14T15:14:18.548Z,64.30
2018-02-14T15:16:46.958Z,64.70
2018-02-14T15:19:14.514Z,64.70
2018-02-14T15:21:42.070Z,64.70
2018-02-14T15:24:09.596Z,65.00
2018-02-14T15:26:38.423Z,65.20
2018-02-14T15:29:05.981Z,65.20
2018-02-14T15:31:33.539Z,65.20
2018-02-14T15:34:01.152Z,65.50
2018-02-14T15:36:28.696Z,65.50
2018-02-14T15:38:56.265Z,65.50
2018-02-14T15:41:25.321Z,65.40
2018-02-14T15:43:52.899Z,65.40
2018-02-14T15:46:21.518Z,65.50
2018-02-14T15:48:49.085Z,65.30
2018-02-14T15:51:17.571Z,65.30
2018-02-14T15:53:45.112Z,65.30
2018-02-14T15:56:12.887Z,65.30
2018-02-14T15:58:41.312Z,65.20
2018-02-14T16:01:08.921Z,65.30
2018-02-14T16:03:36.463Z,65.20
2018-02-14T16:06:04.065Z,65.20
2018-02-14T16:08:31.613Z,65.20
2018-02-14T16:10:59.936Z,65.20
2018-02-14T16:13:27.513Z,65.10
2018-02-14T16:15:55.057Z,65.20
2018-02-14T16:18:22.628Z,65.10
2018-02-14T16:20:50.320Z,65.50
2018-02-14T16:23:18.672Z,65.60
2018-02-14T16:25:46.218Z,65.60
2018-02-14T16:28:13.853Z,65.90
2018-02-14T16:30:41.661Z,66.10
2018-02-14T16:33:09.810Z,66.00
2018-02-14T16:35:37.373Z,66.10
2018-02-14T16:38:04.941Z,66.00
2018-02-14T16:40:32.517Z,66.40
2018-02-14T16:43:00.064Z,66.10
2018-02-14T16:45:27.709Z,66.40
2018-02-14T16:47:55.432Z,66.70
2018-02-14T16:50:23.210Z,66.70
2018-02-14T16:52:50.772Z,66.90
2018-02-14T16:55:18.332Z,67.00
2018-02-14T16:57:45.934Z,67.00
2018-02-14T17:00:13.496Z,67.20
2018-02-14T17:02:41.079Z,67.30
2018-02-14T17:05:08.619Z,67.50
2018-02-14T17:07:36.262Z,67.70
2018-02-14T17:10:03.828Z,67.80
2018-02-14T17:12:31.441Z,67.90
2018-02-14T17:14:58.988Z,68.10
2018-02-14T17:17:26.544Z,68.70
2018-02-14T17:19:54.888Z,68.80
2018-02-14T17:22:22.466Z,68.70
2018-02-14T17:24:50.828Z,68.70
2018-02-14T17:27:18.398Z,68.70
2018-02-14T17:29:45.993Z,68.60
2018-02-14T17:32:13.543Z,68.60
2018-02-14T17:34:41.863Z,68.80
2018-02-14T17:37:09.484Z,68.80
2018-02-14T17:39:37.821Z,69.60
2018-02-14T17:42:05.568Z,69.10
2018-02-14T17:44:33.117Z,69.30
2018-02-14T17:47:00.707Z,69.70
2018-02-14T17:49:29.059Z,69.60
2018-02-14T17:51:56.652Z,69.60
2018-02-14T17:54:24.184Z,69.80
2018-02-14T17:56:51.723Z,70.10
2018-02-14T17:59:19.450Z,70.10
2018-02-14T18:01:46.972Z,69.90
2018-02-14T18:04:14.549Z,69.80
2018-02-14T18:06:42.157Z,69.80
2018-02-14T18:09:09.743Z,70.10
2018-02-14T18:11:37.286Z,70.00
2018-02-14T18:14:04.859Z,70.10
2018-02-14T18:16:32.424Z,70.20
2018-02-14T18:19:00.005Z,70.20
2018-02-14T18:21:27.911Z,70.20
2018-02-14T18:23:55.490Z,70.30
2018-02-14T18:26:23.164Z,70.30
2018-02-14T18:28:50.814Z,70.50
2018-02-14T18:31:18.421Z,70.40
2018-02-14T18:33:45.969Z,70.50
2018-02-14T18:36:13.573Z,70.60
2018-02-14T18:38:41.121Z,70.60
2018-02-14T18:41:09.342Z,70.80
2018-02-14T18:43:36.890Z,70.70
2018-02-14T18:46:04.550Z,70.70
2018-02-14T18:48:32.135Z,70.60
2018-02-14T18:50:59.702Z,70.70
2018-02-14T18:53:27.278Z,70.80
2018-02-14T18:55:54.836Z,70.80
2018-02-14T18:58:22.407Z,70.70
2018-02-14T19:00:49.957Z,70.90
2018-02-14T19:03:17.529Z,71.10
2018-02-14T19:05:45.077Z,71.00
2018-02-14T19:08:12.620Z,71.20
2018-02-14T19:10:41.991Z,71.40
2018-02-14T19:13:09.535Z,71.60
2018-02-14T19:15:37.218Z,71.70
2018-02-14T19:18:04.762Z,71.60
2018-02-14T19:20:32.357Z,71.70
2018-02-14T19:22:59.904Z,71.50
2018-02-14T19:25:27.576Z,71.50
2018-02-14T19:27:55.125Z,72.20
2018-02-14T19:30:22.731Z,71.70
2018-02-14T19:32:51.058Z,71.80
2018-02-14T19:35:18.625Z,71.70
2018-02-14T19:37:46.213Z,71.90
2018-02-14T19:40:13.741Z,71.70
2018-02-14T19:42:41.423Z,71.80
2018-02-14T19:45:08.970Z,71.90
2018-02-14T19:47:36.555Z,72.30
2018-02-14T19:50:04.103Z,72.20
2018-02-14T19:52:31.686Z,72.20
2018-02-14T19:55:00.018Z,72.30
2018-02-14T19:57:27.626Z,72.30
2018-02-14T19:59:55.248Z,72.20
2018-02-14T20:02:22.916Z,72.30
2018-02-14T20:04:51.301Z,72.20
2018-02-14T20:07:19.232Z,72.20
2018-02-14T20:09:46.973Z,72.20
2018-02-14T20:12:14.518Z,72.20
2018-02-14T20:14:42.096Z,72.10
2018-02-14T20:17:09.650Z,72.10
2018-02-14T20:19:37.365Z,72.10
2018-02-14T20:22:04.934Z,72.00
2018-02-14T20:24:32.477Z,72.30
2018-02-14T20:27:00.125Z,72.60
2018-02-14T20:29:27.658Z,72.90
2018-02-14T20:31:56.018Z,72.90
2018-02-14T20:34:23.554Z,73.00
2018-02-14T20:36:51.172Z,73.10
2018-02-14T20:39:18.717Z,73.00
2018-02-14T20:41:46.246Z,73.20
2018-02-14T20:44:13.829Z,73.20
2018-02-14T20:46:42.208Z,73.40
2018-02-14T20:49:09.781Z,73.30
2018-02-14T20:51:37.370Z,73.40
2018-02-14T20:54:05.593Z,73.10
2018-02-14T20:56:33.246Z,73.20
2018-02-14T20:59:00.829Z,73.20
2018-02-14T21:01:28.389Z,73.00
2018-02-14T21:03:56.292Z,73.30
2018-02-14T21:06:23.854Z,73.30
2018-02-14T21:08:51.421Z,73.20
2018-02-14T21:11:19.001Z,72.80
2018-02-14T21:13:46.532Z,73.10
2018-02-14T21:16:14.122Z,73.20
2018-02-14T21:18:42.444Z,73.40
2018-02-14T21:21:10.036Z,73.40
2018-02-14T21:23:37.589Z,73.60
2018-02-14T21:26:05.201Z,73.60
2018-02-14T21:28:32.753Z,73.50
2018-02-14T21:31:01.069Z,73.60
2018-02-14T21:33:28.659Z,73.50
2018-02-14T21:35:56.228Z,73.50
2018-02-14T21:38:23.808Z,73.40
2018-02-14T21:40:52.123Z,73.50
2018-02-14T21:43:19.684Z,73.40
2018-02-14T21:45:47.246Z,73.50
2018-02-14T21:48:14.805Z,73.60
2018-02-14T21:50:43.104Z,73.70
2018-02-14T21:53:12.600Z,73.60
2018-02-14T21:55:40.178Z,73.60
2018-02-14T21:58:07.811Z,73.80
2018-02-14T22:00:35.358Z,73.90
2018-02-14T22:03:03.386Z,73.90
2018-02-14T22:05:30.943Z,73.80
2018-02-14T22:07:59.340Z,73.70
2018-02-14T22:10:26.900Z,73.60
2018-02-14T22:12:55.389Z,73.80
2018-02-14T22:15:22.943Z,73.80
2018-02-14T22:17:50.555Z,73.60
2018-02-14T22:20:18.101Z,73.90
2018-02-14T22:22:45.657Z,73.90
2018-02-14T22:25:13.306Z,73.80
2018-02-14T22:27:40.842Z,73.90
2018-02-14T22:30:08.437Z,73.90
2018-02-14T22:32:36.188Z,73.60
2018-02-14T22:35:03.747Z,73.80
2018-02-14T22:37:31.417Z,73.80
2018-02-14T22:39:58.967Z,74.00
2018-02-14T22:42:26.611Z,74.00
2018-02-14T22:44:54.188Z,74.30
2018-02-14T22:47:21.785Z,74.60
2018-02-14T22:49:49.349Z,74.30
2018-02-14T22:52:16.914Z,74.70
2018-02-14T22:54:44.493Z,74.50
2018-02-14T22:57:12.089Z,74.70
2018-02-14T22:59:39.681Z,74.70
2018-02-14T23:02:07.228Z,74.70
2018-02-14T23:04:34.858Z,74.70
2018-02-14T23:07:02.436Z,74.90
2018-02-14T23:09:29.985Z,74.80
2018-02-14T23:11:57.601Z,74.90
2018-02-14T23:14:26.066Z,74.90
2018-02-14T23:16:53.665Z,74.70
2018-02-14T23:19:21.277Z,74.90
2018-02-14T23:21:48.861Z,74.90
2018-02-14T23:24:16.420Z,74.70
2018-02-14T23:26:44.036Z,74.80
2018-02-14T23:29:11.593Z,74.70
2018-02-14T23:31:39.195Z,74.50
2018-02-14T23:34:07.562Z,74.80
2018-02-14T23:36:35.600Z,74.80
2018-02-14T23:39:03.174Z,74.90
2018-02-14T23:41:30.731Z,74.90
2018-02-14T23:43:58.322Z,74.60
2018-02-14T23:46:25.865Z,74.50
2018-02-14T23:48:53.467Z,74.50
2018-02-14T23:51:21.777Z,74.30
2018-02-14T23:53:49.540Z,74.20
2018-02-14T23:56:17.164Z,74.70
2018-02-14T23:58:45.519Z,75.50
